Airfield :
LOGIN :

Register | Disclaimer

   EN    FR    IT 

 










Legend :    VFR   Marginal VFR   IFR   Intensive IFR   Very Intensive IFR
Visi :
Ceiling :
>= 8 km
>= 3000ft
5 to 8 km
1000 to 3000 ft
1500m to 5 km
500 to 1000 ft
800 to 1500m
200 to 500 ft
< 800m
< 200 ft
Symbols :   Thunderstorms  Fog  Heavy snow  Heavy precipitations  Wind > 20 kt
SIGMETs :     Misc.  Thunderstorms  Icing  Turbulence  Mountain Waves  Volcanic Ashes







- Airport Elevation : 195 ft
- Download approach charts


LFMY - Salon de Provence

CURRENT METAR :
  • 261230Z AUTO 31020G34KT 270V340 CAVOK 27/10 Q1010 NOSIG

EXPIRED METARs :
  • 261200Z AUTO 31022G36KT 270V350 CAVOK 27/10 Q1010 NOSIG
  • 261130Z AUTO 33021G33KT 280V360 CAVOK 28/09 Q1010 NOSIG
  • 261100Z AUTO 33023G40KT 290V360 CAVOK 27/09 Q1011 NOSIG
  • 261030Z AUTO 33022G38KT 270V360 CAVOK 26/10 Q1011 NOSIG
  • 261000Z AUTO 33022G37KT 290V350 CAVOK 26/09 Q1011 NOSIG

TAF TAF LFMY
Valid from the 26 at 09:00 until the 27 at 09:00 UTC


260800Z 2609/2709 33022G32KT CAVOK
BECMG 2620/2622 33015G25KT
BECMG 2704/2706 33012KT
No reported NOTAMs for that airfield.



MET'MAP, your aeronautical weather chart ! - Copyright ORBIFLY December 2007 - Disclaimer

ORBIFLY MET'MAP TEAM :

Programming & Development : Alexandra Zaïnal
Concept & Development : Baudouin d'Aumeries
Co-Development & Prog : Marc-Olivier Méhu
Technical & hardware support : Manuel Goepfert

Contact : metmap@orbifly.com




SOURCES & CREDITS :

   NOAA